sensor_id;sensor_type;location;lat;lon;timestamp;P1;durP1;ratioP1;P2;durP2;ratioP2
77280;SDS011;66339;47.262;17.144;2023-03-14T00:01:43;8.70;;;3.37;;
77280;SDS011;66339;47.262;17.144;2023-03-14T00:04:16;6.15;;;3.20;;
77280;SDS011;66339;47.262;17.144;2023-03-14T00:06:44;4.62;;;3.03;;
77280;SDS011;66339;47.262;17.144;2023-03-14T00:09:22;4.65;;;2.80;;
77280;SDS011;66339;47.262;17.144;2023-03-14T00:11:54;5.68;;;3.40;;
77280;SDS011;66339;47.262;17.144;2023-03-14T00:14:21;5.22;;;3.20;;
77280;SDS011;66339;47.262;17.144;2023-03-14T00:16:53;4.95;;;3.05;;
77280;SDS011;66339;47.262;17.144;2023-03-14T00:19:26;8.52;;;3.22;;
77280;SDS011;66339;47.262;17.144;2023-03-14T00:22:00;5.28;;;2.90;;
77280;SDS011;66339;47.262;17.144;2023-03-14T00:24:27;5.47;;;3.22;;
77280;SDS011;66339;47.262;17.144;2023-03-14T00:26:56;6.93;;;3.10;;
77280;SDS011;66339;47.262;17.144;2023-03-14T00:29:32;5.35;;;3.08;;
77280;SDS011;66339;47.262;17.144;2023-03-14T00:32:01;7.15;;;2.70;;
77280;SDS011;66339;47.262;17.144;2023-03-14T00:34:32;4.00;;;2.80;;
77280;SDS011;66339;47.262;17.144;2023-03-14T00:37:02;4.87;;;2.75;;
77280;SDS011;66339;47.262;17.144;2023-03-14T00:39:39;5.15;;;2.85;;
77280;SDS011;66339;47.262;17.144;2023-03-14T00:42:10;5.80;;;3.08;;
77280;SDS011;66339;47.262;17.144;2023-03-14T00:44:47;4.25;;;2.65;;
77280;SDS011;66339;47.262;17.144;2023-03-14T00:47:17;4.25;;;2.85;;
77280;SDS011;66339;47.262;17.144;2023-03-14T00:49:51;5.35;;;2.67;;
77280;SDS011;66339;47.262;17.144;2023-03-14T00:52:21;4.40;;;2.87;;
77280;SDS011;66339;47.262;17.144;2023-03-14T00:54:50;4.65;;;2.90;;
77280;SDS011;66339;47.262;17.144;2023-03-14T00:57:23;4.43;;;2.60;;
77280;SDS011;66339;47.262;17.144;2023-03-14T00:59:51;5.15;;;2.75;;
77280;SDS011;66339;47.262;17.144;2023-03-14T01:02:22;4.15;;;2.70;;
77280;SDS011;66339;47.262;17.144;2023-03-14T01:04:53;3.53;;;2.50;;
77280;SDS011;66339;47.262;17.144;2023-03-14T01:07:21;4.93;;;2.67;;
77280;SDS011;66339;47.262;17.144;2023-03-14T01:09:59;3.90;;;2.30;;
77280;SDS011;66339;47.262;17.144;2023-03-14T01:12:29;4.20;;;2.60;;
77280;SDS011;66339;47.262;17.144;2023-03-14T01:14:56;3.67;;;2.45;;
77280;SDS011;66339;47.262;17.144;2023-03-14T01:17:24;4.90;;;2.67;;
77280;SDS011;66339;47.262;17.144;2023-03-14T01:19:57;3.20;;;2.30;;
77280;SDS011;66339;47.262;17.144;2023-03-14T01:22:25;3.45;;;2.53;;
77280;SDS011;66339;47.262;17.144;2023-03-14T01:24:59;3.15;;;2.25;;
77280;SDS011;66339;47.262;17.144;2023-03-14T01:27:27;5.43;;;2.70;;
77280;SDS011;66339;47.262;17.144;2023-03-14T01:29:57;3.75;;;2.30;;
77280;SDS011;66339;47.262;17.144;2023-03-14T01:32:25;5.72;;;2.60;;
77280;SDS011;66339;47.262;17.144;2023-03-14T01:34:59;3.45;;;2.20;;
77280;SDS011;66339;47.262;17.144;2023-03-14T01:37:36;3.22;;;2.10;;
77280;SDS011;66339;47.262;17.144;2023-03-14T01:40:08;4.47;;;2.72;;
77280;SDS011;66339;47.262;17.144;2023-03-14T01:42:37;3.30;;;2.10;;
77280;SDS011;66339;47.262;17.144;2023-03-14T01:48:37;4.45;;;2.40;;
77280;SDS011;66339;47.262;17.144;2023-03-14T01:51:13;3.62;;;2.37;;
77280;SDS011;66339;47.262;17.144;2023-03-14T01:53:54;3.45;;;2.30;;
77280;SDS011;66339;47.262;17.144;2023-03-14T01:56:35;4.57;;;2.33;;
77280;SDS011;66339;47.262;17.144;2023-03-14T01:59:08;3.62;;;2.20;;
77280;SDS011;66339;47.262;17.144;2023-03-14T02:01:43;3.05;;;2.12;;
77280;SDS011;66339;47.262;17.144;2023-03-14T02:04:15;3.47;;;2.20;;
77280;SDS011;66339;47.262;17.144;2023-03-14T02:07:00;2.85;;;2.10;;
77280;SDS011;66339;47.262;17.144;2023-03-14T02:09:35;3.30;;;2.40;;
77280;SDS011;66339;47.262;17.144;2023-03-14T02:12:08;3.22;;;2.10;;
77280;SDS011;66339;47.262;17.144;2023-03-14T02:14:46;3.65;;;2.12;;
77280;SDS011;66339;47.262;17.144;2023-03-14T02:17:18;3.55;;;1.92;;
77280;SDS011;66339;47.262;17.144;2023-03-14T02:22:49;3.08;;;1.98;;
77280;SDS011;66339;47.262;17.144;2023-03-14T02:25:32;2.92;;;1.92;;
77280;SDS011;66339;47.262;17.144;2023-03-14T02:28:18;6.97;;;2.12;;
77280;SDS011;66339;47.262;17.144;2023-03-14T02:30:52;2.90;;;2.00;;
77280;SDS011;66339;47.262;17.144;2023-03-14T02:33:21;3.17;;;2.08;;
77280;SDS011;66339;47.262;17.144;2023-03-14T02:41:10;2.90;;;1.87;;
77280;SDS011;66339;47.262;17.144;2023-03-14T02:43:37;2.47;;;1.90;;
77280;SDS011;66339;47.262;17.144;2023-03-14T02:46:10;2.87;;;1.92;;
77280;SDS011;66339;47.262;17.144;2023-03-14T02:51:23;3.53;;;2.30;;
77280;SDS011;66339;47.262;17.144;2023-03-14T02:53:57;3.58;;;2.03;;
77280;SDS011;66339;47.262;17.144;2023-03-14T02:56:32;2.60;;;1.75;;
77280;SDS011;66339;47.262;17.144;2023-03-14T02:59:04;3.15;;;1.90;;
77280;SDS011;66339;47.262;17.144;2023-03-14T03:01:37;3.17;;;1.70;;
77280;SDS011;66339;47.262;17.144;2023-03-14T03:04:04;2.42;;;1.77;;
77280;SDS011;66339;47.262;17.144;2023-03-14T03:06:42;2.08;;;1.67;;
77280;SDS011;66339;47.262;17.144;2023-03-14T03:09:13;3.62;;;1.77;;
77280;SDS011;66339;47.262;17.144;2023-03-14T03:11:41;2.80;;;1.70;;
77280;SDS011;66339;47.262;17.144;2023-03-14T03:14:11;2.78;;;1.52;;
77280;SDS011;66339;47.262;17.144;2023-03-14T03:16:45;3.03;;;2.00;;
77280;SDS011;66339;47.262;17.144;2023-03-14T03:19:12;3.05;;;1.77;;
77280;SDS011;66339;47.262;17.144;2023-03-14T03:21:43;3.83;;;1.90;;
77280;SDS011;66339;47.262;17.144;2023-03-14T03:24:11;3.83;;;1.90;;
77280;SDS011;66339;47.262;17.144;2023-03-14T03:26:40;3.10;;;1.70;;
77280;SDS011;66339;47.262;17.144;2023-03-14T03:29:07;2.87;;;1.70;;
77280;SDS011;66339;47.262;17.144;2023-03-14T03:31:39;2.90;;;1.85;;
77280;SDS011;66339;47.262;17.144;2023-03-14T03:34:13;2.75;;;1.70;;
77280;SDS011;66339;47.262;17.144;2023-03-14T03:36:46;2.92;;;1.83;;
77280;SDS011;66339;47.262;17.144;2023-03-14T03:39:21;2.65;;;1.60;;
77280;SDS011;66339;47.262;17.144;2023-03-14T03:42:04;2.42;;;1.67;;
77280;SDS011;66339;47.262;17.144;2023-03-14T03:44:35;2.42;;;1.73;;
77280;SDS011;66339;47.262;17.144;2023-03-14T03:47:05;2.72;;;1.50;;
77280;SDS011;66339;47.262;17.144;2023-03-14T03:49:32;2.08;;;1.58;;
77280;SDS011;66339;47.262;17.144;2023-03-14T03:52:02;3.92;;;1.65;;
77280;SDS011;66339;47.262;17.144;2023-03-14T03:54:29;3.20;;;1.80;;
77280;SDS011;66339;47.262;17.144;2023-03-14T03:56:59;4.80;;;1.73;;
77280;SDS011;66339;47.262;17.144;2023-03-14T03:59:30;2.72;;;1.52;;
77280;SDS011;66339;47.262;17.144;2023-03-14T04:02:00;2.03;;;1.70;;
77280;SDS011;66339;47.262;17.144;2023-03-14T04:04:35;2.20;;;1.60;;
77280;SDS011;66339;47.262;17.144;2023-03-14T04:07:09;2.47;;;1.62;;
77280;SDS011;66339;47.262;17.144;2023-03-14T04:09:37;3.22;;;1.58;;
77280;SDS011;66339;47.262;17.144;2023-03-14T04:12:08;3.05;;;2.00;;
77280;SDS011;66339;47.262;17.144;2023-03-14T04:14:41;3.10;;;1.60;;
77280;SDS011;66339;47.262;17.144;2023-03-14T04:17:16;3.33;;;1.70;;
77280;SDS011;66339;47.262;17.144;2023-03-14T04:19:50;2.42;;;1.45;;
77280;SDS011;66339;47.262;17.144;2023-03-14T04:22:20;1.55;;;1.23;;
77280;SDS011;66339;47.262;17.144;2023-03-14T04:24:50;2.70;;;1.58;;
77280;SDS011;66339;47.262;17.144;2023-03-14T04:27:25;3.60;;;1.60;;
77280;SDS011;66339;47.262;17.144;2023-03-14T04:30:02;3.80;;;1.60;;
77280;SDS011;66339;47.262;17.144;2023-03-14T04:32:38;2.10;;;1.45;;
77280;SDS011;66339;47.262;17.144;2023-03-14T04:35:11;3.60;;;1.60;;
77280;SDS011;66339;47.262;17.144;2023-03-14T04:37:47;2.72;;;1.35;;
77280;SDS011;66339;47.262;17.144;2023-03-14T04:40:15;2.65;;;1.60;;
77280;SDS011;66339;47.262;17.144;2023-03-14T04:45:17;1.62;;;1.40;;
77280;SDS011;66339;47.262;17.144;2023-03-14T04:47:50;2.33;;;1.40;;
77280;SDS011;66339;47.262;17.144;2023-03-14T04:50:18;2.83;;;1.65;;
77280;SDS011;66339;47.262;17.144;2023-03-14T04:52:54;2.28;;;1.50;;
77280;SDS011;66339;47.262;17.144;2023-03-14T04:55:26;6.78;;;2.35;;
77280;SDS011;66339;47.262;17.144;2023-03-14T04:57:57;2.55;;;1.17;;
77280;SDS011;66339;47.262;17.144;2023-03-14T05:00:26;1.75;;;1.33;;
77280;SDS011;66339;47.262;17.144;2023-03-14T05:02:56;2.25;;;1.15;;
77280;SDS011;66339;47.262;17.144;2023-03-14T05:05:27;2.45;;;1.40;;
77280;SDS011;66339;47.262;17.144;2023-03-14T05:08:04;1.52;;;1.30;;
77280;SDS011;66339;47.262;17.144;2023-03-14T05:10:37;2.47;;;1.40;;
77280;SDS011;66339;47.262;17.144;2023-03-14T05:13:05;2.15;;;1.40;;
77280;SDS011;66339;47.262;17.144;2023-03-14T05:15:35;2.28;;;1.42;;
77280;SDS011;66339;47.262;17.144;2023-03-14T05:18:11;2.45;;;1.23;;
77280;SDS011;66339;47.262;17.144;2023-03-14T05:20:39;2.20;;;1.35;;
77280;SDS011;66339;47.262;17.144;2023-03-14T05:23:12;1.77;;;1.23;;
77280;SDS011;66339;47.262;17.144;2023-03-14T05:25:43;2.53;;;1.50;;
77280;SDS011;66339;47.262;17.144;2023-03-14T05:28:16;1.60;;;1.30;;
77280;SDS011;66339;47.262;17.144;2023-03-14T05:30:47;1.42;;;1.23;;
77280;SDS011;66339;47.262;17.144;2023-03-14T05:33:24;2.15;;;1.25;;
77280;SDS011;66339;47.262;17.144;2023-03-14T05:36:02;2.12;;;1.30;;
77280;SDS011;66339;47.262;17.144;2023-03-14T05:38:32;1.50;;;1.10;;
77280;SDS011;66339;47.262;17.144;2023-03-14T05:41:06;3.87;;;1.30;;
77280;SDS011;66339;47.262;17.144;2023-03-14T05:43:45;2.37;;;1.40;;
77280;SDS011;66339;47.262;17.144;2023-03-14T05:46:16;1.77;;;1.10;;
77280;SDS011;66339;47.262;17.144;2023-03-14T05:48:46;2.67;;;1.40;;
77280;SDS011;66339;47.262;17.144;2023-03-14T05:51:17;2.17;;;1.37;;
77280;SDS011;66339;47.262;17.144;2023-03-14T05:53:44;3.08;;;1.40;;
77280;SDS011;66339;47.262;17.144;2023-03-14T05:56:19;1.48;;;1.12;;
77280;SDS011;66339;47.262;17.144;2023-03-14T05:58:55;2.33;;;1.30;;
77280;SDS011;66339;47.262;17.144;2023-03-14T06:01:25;1.85;;;1.23;;
77280;SDS011;66339;47.262;17.144;2023-03-14T06:03:56;1.75;;;1.10;;
77280;SDS011;66339;47.262;17.144;2023-03-14T06:06:32;7.40;;;1.55;;
77280;SDS011;66339;47.262;17.144;2023-03-14T06:09:00;2.65;;;1.27;;
77280;SDS011;66339;47.262;17.144;2023-03-14T06:11:29;2.25;;;1.35;;
77280;SDS011;66339;47.262;17.144;2023-03-14T06:13:59;3.50;;;1.50;;
77280;SDS011;66339;47.262;17.144;2023-03-14T06:16:32;4.07;;;1.85;;
77280;SDS011;66339;47.262;17.144;2023-03-14T06:19:04;6.70;;;1.98;;
77280;SDS011;66339;47.262;17.144;2023-03-14T06:21:34;3.92;;;1.80;;
77280;SDS011;66339;47.262;17.144;2023-03-14T06:24:08;9.13;;;2.22;;
77280;SDS011;66339;47.262;17.144;2023-03-14T06:26:44;7.40;;;1.83;;
77280;SDS011;66339;47.262;17.144;2023-03-14T06:29:18;5.03;;;1.67;;
77280;SDS011;66339;47.262;17.144;2023-03-14T06:31:52;4.28;;;1.80;;
77280;SDS011;66339;47.262;17.144;2023-03-14T06:34:23;2.85;;;1.52;;
77280;SDS011;66339;47.262;17.144;2023-03-14T06:36:57;8.35;;;1.80;;
77280;SDS011;66339;47.262;17.144;2023-03-14T06:39:27;4.68;;;1.60;;
77280;SDS011;66339;47.262;17.144;2023-03-14T06:42:01;2.50;;;1.42;;
77280;SDS011;66339;47.262;17.144;2023-03-14T06:44:36;4.20;;;1.30;;
77280;SDS011;66339;47.262;17.144;2023-03-14T06:47:05;4.25;;;1.50;;
77280;SDS011;66339;47.262;17.144;2023-03-14T06:49:38;6.37;;;1.65;;
77280;SDS011;66339;47.262;17.144;2023-03-14T06:52:08;5.87;;;1.40;;
77280;SDS011;66339;47.262;17.144;2023-03-14T06:54:45;3.20;;;1.60;;
77280;SDS011;66339;47.262;17.144;2023-03-14T06:57:12;4.00;;;1.60;;
77280;SDS011;66339;47.262;17.144;2023-03-14T06:59:49;3.62;;;1.50;;
77280;SDS011;66339;47.262;17.144;2023-03-14T07:02:19;5.20;;;1.67;;
77280;SDS011;66339;47.262;17.144;2023-03-14T07:05:11;10.82;;;1.85;;
77280;SDS011;66339;47.262;17.144;2023-03-14T07:07:40;5.00;;;1.58;;
77280;SDS011;66339;47.262;17.144;2023-03-14T07:10:12;5.37;;;1.77;;
77280;SDS011;66339;47.262;17.144;2023-03-14T07:12:45;9.65;;;1.75;;
77280;SDS011;66339;47.262;17.144;2023-03-14T07:15:18;6.82;;;1.83;;
77280;SDS011;66339;47.262;17.144;2023-03-14T07:17:49;8.52;;;1.70;;
77280;SDS011;66339;47.262;17.144;2023-03-14T07:20:22;6.30;;;1.70;;
77280;SDS011;66339;47.262;17.144;2023-03-14T07:22:53;9.50;;;2.30;;
77280;SDS011;66339;47.262;17.144;2023-03-14T07:25:29;17.70;;;7.25;;
77280;SDS011;66339;47.262;17.144;2023-03-14T07:28:02;27.58;;;13.85;;
77280;SDS011;66339;47.262;17.144;2023-03-14T07:30:36;34.95;;;18.60;;
77280;SDS011;66339;47.262;17.144;2023-03-14T07:33:09;38.63;;;19.00;;
77280;SDS011;66339;47.262;17.144;2023-03-14T07:35:42;32.22;;;17.98;;
77280;SDS011;66339;47.262;17.144;2023-03-14T07:38:19;28.80;;;17.85;;
77280;SDS011;66339;47.262;17.144;2023-03-14T07:41:10;26.20;;;14.73;;
77280;SDS011;66339;47.262;17.144;2023-03-14T07:43:40;28.08;;;14.50;;
77280;SDS011;66339;47.262;17.144;2023-03-14T07:46:10;31.33;;;15.02;;
77280;SDS011;66339;47.262;17.144;2023-03-14T07:48:48;25.20;;;14.40;;
77280;SDS011;66339;47.262;17.144;2023-03-14T07:51:15;24.87;;;13.70;;
77280;SDS011;66339;47.262;17.144;2023-03-14T07:53:44;23.02;;;13.80;;
77280;SDS011;66339;47.262;17.144;2023-03-14T07:56:17;24.67;;;12.35;;
77280;SDS011;66339;47.262;17.144;2023-03-14T07:58:48;24.42;;;13.18;;
77280;SDS011;66339;47.262;17.144;2023-03-14T08:01:25;23.62;;;12.50;;
77280;SDS011;66339;47.262;17.144;2023-03-14T08:03:52;26.87;;;11.75;;
77280;SDS011;66339;47.262;17.144;2023-03-14T08:06:20;20.58;;;11.10;;
77280;SDS011;66339;47.262;17.144;2023-03-14T08:08:48;24.20;;;11.95;;
77280;SDS011;66339;47.262;17.144;2023-03-14T08:11:22;27.62;;;12.10;;
77280;SDS011;66339;47.262;17.144;2023-03-14T08:13:56;25.48;;;12.52;;
77280;SDS011;66339;47.262;17.144;2023-03-14T08:16:27;25.15;;;11.23;;
77280;SDS011;66339;47.262;17.144;2023-03-14T08:19:02;26.77;;;10.68;;
77280;SDS011;66339;47.262;17.144;2023-03-14T08:21:33;26.87;;;9.18;;
77280;SDS011;66339;47.262;17.144;2023-03-14T08:24:07;23.33;;;9.70;;
77280;SDS011;66339;47.262;17.144;2023-03-14T08:26:44;21.73;;;9.48;;
77280;SDS011;66339;47.262;17.144;2023-03-14T08:29:11;25.65;;;10.10;;
77280;SDS011;66339;47.262;17.144;2023-03-14T08:31:41;23.48;;;9.40;;
77280;SDS011;66339;47.262;17.144;2023-03-14T08:34:12;19.55;;;8.82;;
77280;SDS011;66339;47.262;17.144;2023-03-14T08:36:42;21.05;;;9.20;;
77280;SDS011;66339;47.262;17.144;2023-03-14T08:39:09;22.13;;;8.82;;
77280;SDS011;66339;47.262;17.144;2023-03-14T08:41:40;15.82;;;7.82;;
77280;SDS011;66339;47.262;17.144;2023-03-14T08:44:07;18.65;;;8.40;;
77280;SDS011;66339;47.262;17.144;2023-03-14T08:46:38;17.20;;;8.20;;
77280;SDS011;66339;47.262;17.144;2023-03-14T08:49:05;21.77;;;8.43;;
77280;SDS011;66339;47.262;17.144;2023-03-14T08:51:36;16.20;;;7.57;;
77280;SDS011;66339;47.262;17.144;2023-03-14T08:54:03;15.57;;;7.30;;
77280;SDS011;66339;47.262;17.144;2023-03-14T08:59:09;12.98;;;6.50;;
77280;SDS011;66339;47.262;17.144;2023-03-14T09:01:40;14.40;;;6.80;;
77280;SDS011;66339;47.262;17.144;2023-03-14T09:04:07;12.05;;;6.40;;
77280;SDS011;66339;47.262;17.144;2023-03-14T09:06:42;14.75;;;6.28;;
77280;SDS011;66339;47.262;17.144;2023-03-14T09:09:13;18.62;;;6.85;;
77280;SDS011;66339;47.262;17.144;2023-03-14T09:11:40;14.45;;;6.75;;
77280;SDS011;66339;47.262;17.144;2023-03-14T09:14:10;10.13;;;5.53;;
77280;SDS011;66339;47.262;17.144;2023-03-14T09:16:42;14.52;;;6.20;;
77280;SDS011;66339;47.262;17.144;2023-03-14T09:19:13;12.23;;;5.80;;
77280;SDS011;66339;47.262;17.144;2023-03-14T09:21:42;12.85;;;5.85;;
77280;SDS011;66339;47.262;17.144;2023-03-14T09:24:12;10.95;;;5.55;;
77280;SDS011;66339;47.262;17.144;2023-03-14T09:26:40;9.38;;;4.87;;
77280;SDS011;66339;47.262;17.144;2023-03-14T09:29:10;9.68;;;5.18;;
77280;SDS011;66339;47.262;17.144;2023-03-14T09:31:42;11.27;;;5.32;;
77280;SDS011;66339;47.262;17.144;2023-03-14T09:34:15;9.65;;;4.80;;
77280;SDS011;66339;47.262;17.144;2023-03-14T09:36:49;10.77;;;5.00;;
77280;SDS011;66339;47.262;17.144;2023-03-14T09:39:16;13.43;;;4.87;;
77280;SDS011;66339;47.262;17.144;2023-03-14T09:41:48;10.90;;;4.85;;
77280;SDS011;66339;47.262;17.144;2023-03-14T09:44:24;9.43;;;4.87;;
77280;SDS011;66339;47.262;17.144;2023-03-14T09:47:03;10.52;;;4.97;;
77280;SDS011;66339;47.262;17.144;2023-03-14T09:49:41;8.75;;;4.32;;
77280;SDS011;66339;47.262;17.144;2023-03-14T09:52:14;10.30;;;5.12;;
77280;SDS011;66339;47.262;17.144;2023-03-14T09:54:52;9.80;;;4.00;;
77280;SDS011;66339;47.262;17.144;2023-03-14T09:57:24;9.15;;;4.20;;
77280;SDS011;66339;47.262;17.144;2023-03-14T10:00:02;10.77;;;4.18;;
77280;SDS011;66339;47.262;17.144;2023-03-14T10:03:34;10.20;;;4.50;;
77280;SDS011;66339;47.262;17.144;2023-03-14T10:06:00;8.85;;;3.70;;
77280;SDS011;66339;47.262;17.144;2023-03-14T10:08:39;7.78;;;3.75;;
77280;SDS011;66339;47.262;17.144;2023-03-14T10:11:17;7.20;;;3.22;;
77280;SDS011;66339;47.262;17.144;2023-03-14T10:14:02;8.75;;;3.62;;
77280;SDS011;66339;47.262;17.144;2023-03-14T10:16:43;9.27;;;3.80;;
77280;SDS011;66339;47.262;17.144;2023-03-14T10:19:16;7.62;;;3.15;;
77280;SDS011;66339;47.262;17.144;2023-03-14T10:21:51;9.45;;;3.53;;
77280;SDS011;66339;47.262;17.144;2023-03-14T10:27:10;6.00;;;2.80;;
77280;SDS011;66339;47.262;17.144;2023-03-14T10:29:53;6.47;;;3.10;;
77280;SDS011;66339;47.262;17.144;2023-03-14T10:32:32;7.10;;;3.28;;
77280;SDS011;66339;47.262;17.144;2023-03-14T10:35:11;7.32;;;3.28;;
77280;SDS011;66339;47.262;17.144;2023-03-14T10:38:10;6.60;;;3.25;;
77280;SDS011;66339;47.262;17.144;2023-03-14T10:40:46;8.82;;;3.20;;
77280;SDS011;66339;47.262;17.144;2023-03-14T10:43:21;7.28;;;3.22;;
77280;SDS011;66339;47.262;17.144;2023-03-14T10:45:56;6.25;;;2.83;;
77280;SDS011;66339;47.262;17.144;2023-03-14T10:48:32;7.87;;;2.75;;
77280;SDS011;66339;47.262;17.144;2023-03-14T10:51:09;6.72;;;2.80;;
77280;SDS011;66339;47.262;17.144;2023-03-14T10:56:23;7.85;;;2.55;;
77280;SDS011;66339;47.262;17.144;2023-03-14T10:58:53;9.05;;;3.05;;
77280;SDS011;66339;47.262;17.144;2023-03-14T11:07:42;8.50;;;2.60;;
77280;SDS011;66339;47.262;17.144;2023-03-14T11:22:20;9.35;;;2.70;;
77280;SDS011;66339;47.262;17.144;2023-03-14T11:27:42;8.13;;;2.55;;
77280;SDS011;66339;47.262;17.144;2023-03-14T11:30:23;10.23;;;2.92;;
77280;SDS011;66339;47.262;17.144;2023-03-14T11:35:36;8.18;;;2.40;;
77280;SDS011;66339;47.262;17.144;2023-03-14T11:41:23;5.10;;;2.20;;
77280;SDS011;66339;47.262;17.144;2023-03-14T11:43:57;6.43;;;2.05;;
77280;SDS011;66339;47.262;17.144;2023-03-14T11:46:39;6.35;;;2.12;;
77280;SDS011;66339;47.262;17.144;2023-03-14T11:52:01;8.38;;;2.10;;
77280;SDS011;66339;47.262;17.144;2023-03-14T11:54:39;5.68;;;2.42;;
77280;SDS011;66339;47.262;17.144;2023-03-14T11:57:27;7.28;;;2.05;;
77280;SDS011;66339;47.262;17.144;2023-03-14T12:02:36;6.05;;;2.08;;
77280;SDS011;66339;47.262;17.144;2023-03-14T12:05:25;8.57;;;2.12;;
77280;SDS011;66339;47.262;17.144;2023-03-14T12:10:54;7.30;;;2.12;;
77280;SDS011;66339;47.262;17.144;2023-03-14T12:13:27;6.97;;;1.90;;
77280;SDS011;66339;47.262;17.144;2023-03-14T12:15:59;4.18;;;1.87;;
77280;SDS011;66339;47.262;17.144;2023-03-14T12:18:31;7.80;;;2.20;;
77280;SDS011;66339;47.262;17.144;2023-03-14T12:21:02;7.35;;;1.98;;
77280;SDS011;66339;47.262;17.144;2023-03-14T12:23:45;5.05;;;1.83;;
77280;SDS011;66339;47.262;17.144;2023-03-14T12:26:21;4.70;;;2.00;;
77280;SDS011;66339;47.262;17.144;2023-03-14T12:31:35;7.70;;;2.05;;
77280;SDS011;66339;47.262;17.144;2023-03-14T12:36:59;4.57;;;1.83;;
77280;SDS011;66339;47.262;17.144;2023-03-14T12:39:53;3.80;;;1.85;;
77280;SDS011;66339;47.262;17.144;2023-03-14T12:45:22;3.72;;;1.55;;
77280;SDS011;66339;47.262;17.144;2023-03-14T12:50:36;6.03;;;1.50;;
77280;SDS011;66339;47.262;17.144;2023-03-14T12:58:53;6.85;;;1.73;;
77280;SDS011;66339;47.262;17.144;2023-03-14T13:01:53;6.95;;;1.60;;
77280;SDS011;66339;47.262;17.144;2023-03-14T13:04:28;3.65;;;1.98;;
77280;SDS011;66339;47.262;17.144;2023-03-14T13:07:10;4.85;;;2.33;;
77280;SDS011;66339;47.262;17.144;2023-03-14T13:12:47;3.62;;;1.60;;
77280;SDS011;66339;47.262;17.144;2023-03-14T13:15:33;5.45;;;1.73;;
77280;SDS011;66339;47.262;17.144;2023-03-14T13:21:19;4.65;;;1.75;;
77280;SDS011;66339;47.262;17.144;2023-03-14T13:24:01;4.07;;;1.80;;
77280;SDS011;66339;47.262;17.144;2023-03-14T13:26:34;6.18;;;1.40;;
77280;SDS011;66339;47.262;17.144;2023-03-14T13:29:37;6.47;;;1.92;;
77280;SDS011;66339;47.262;17.144;2023-03-14T13:32:00;4.18;;;1.37;;
77280;SDS011;66339;47.262;17.144;2023-03-14T13:34:51;3.40;;;1.65;;
77280;SDS011;66339;47.262;17.144;2023-03-14T13:37:25;6.18;;;1.80;;
77280;SDS011;66339;47.262;17.144;2023-03-14T13:39:54;11.02;;;2.25;;
77280;SDS011;66339;47.262;17.144;2023-03-14T13:42:28;5.60;;;1.40;;
77280;SDS011;66339;47.262;17.144;2023-03-14T13:44:56;3.53;;;1.60;;
77280;SDS011;66339;47.262;17.144;2023-03-14T13:47:29;6.95;;;1.77;;
77280;SDS011;66339;47.262;17.144;2023-03-14T13:49:56;5.03;;;1.60;;
77280;SDS011;66339;47.262;17.144;2023-03-14T13:52:28;3.17;;;1.40;;
77280;SDS011;66339;47.262;17.144;2023-03-14T13:55:02;3.70;;;1.45;;
77280;SDS011;66339;47.262;17.144;2023-03-14T14:00:19;4.55;;;1.35;;
77280;SDS011;66339;47.262;17.144;2023-03-14T14:02:56;10.35;;;1.90;;
77280;SDS011;66339;47.262;17.144;2023-03-14T14:05:29;2.72;;;1.50;;
77280;SDS011;66339;47.262;17.144;2023-03-14T14:08:02;5.20;;;1.33;;
77280;SDS011;66339;47.262;17.144;2023-03-14T14:10:35;4.22;;;1.30;;
77280;SDS011;66339;47.262;17.144;2023-03-14T14:13:03;8.27;;;2.33;;
77280;SDS011;66339;47.262;17.144;2023-03-14T14:15:37;3.65;;;1.48;;
77280;SDS011;66339;47.262;17.144;2023-03-14T14:18:11;2.25;;;1.15;;
77280;SDS011;66339;47.262;17.144;2023-03-14T14:20:43;3.67;;;1.33;;
77280;SDS011;66339;47.262;17.144;2023-03-14T14:23:16;4.45;;;1.67;;
77280;SDS011;66339;47.262;17.144;2023-03-14T14:25:48;9.02;;;1.70;;
77280;SDS011;66339;47.262;17.144;2023-03-14T14:28:24;4.70;;;1.40;;
77280;SDS011;66339;47.262;17.144;2023-03-14T14:31:38;3.65;;;1.55;;
77280;SDS011;66339;47.262;17.144;2023-03-14T14:34:01;8.15;;;1.70;;
77280;SDS011;66339;47.262;17.144;2023-03-14T14:36:39;7.95;;;1.50;;
77280;SDS011;66339;47.262;17.144;2023-03-14T14:39:22;4.05;;;1.33;;
77280;SDS011;66339;47.262;17.144;2023-03-14T14:41:56;4.00;;;1.58;;
77280;SDS011;66339;47.262;17.144;2023-03-14T14:44:30;7.85;;;1.67;;
77280;SDS011;66339;47.262;17.144;2023-03-14T14:47:05;2.35;;;1.40;;
77280;SDS011;66339;47.262;17.144;2023-03-14T14:49:32;4.78;;;1.30;;
77280;SDS011;66339;47.262;17.144;2023-03-14T14:52:05;5.68;;;1.45;;
77280;SDS011;66339;47.262;17.144;2023-03-14T14:54:43;1.70;;;1.10;;
77280;SDS011;66339;47.262;17.144;2023-03-14T14:57:18;3.53;;;1.40;;
77280;SDS011;66339;47.262;17.144;2023-03-14T14:59:54;4.80;;;1.40;;
77280;SDS011;66339;47.262;17.144;2023-03-14T15:05:11;2.55;;;1.25;;
77280;SDS011;66339;47.262;17.144;2023-03-14T15:07:42;5.70;;;1.60;;
77280;SDS011;66339;47.262;17.144;2023-03-14T15:10:11;3.65;;;1.35;;
77280;SDS011;66339;47.262;17.144;2023-03-14T15:12:48;3.78;;;1.80;;
77280;SDS011;66339;47.262;17.144;2023-03-14T15:15:16;8.48;;;1.55;;
77280;SDS011;66339;47.262;17.144;2023-03-14T15:17:46;2.37;;;1.12;;
77280;SDS011;66339;47.262;17.144;2023-03-14T15:20:17;3.45;;;1.17;;
77280;SDS011;66339;47.262;17.144;2023-03-14T15:25:23;5.30;;;1.48;;
77280;SDS011;66339;47.262;17.144;2023-03-14T15:28:14;2.83;;;1.25;;
77280;SDS011;66339;47.262;17.144;2023-03-14T15:30:52;3.47;;;1.20;;
77280;SDS011;66339;47.262;17.144;2023-03-14T15:33:27;2.85;;;1.55;;
77280;SDS011;66339;47.262;17.144;2023-03-14T15:35:57;6.45;;;1.45;;
77280;SDS011;66339;47.262;17.144;2023-03-14T15:38:27;5.40;;;1.50;;
77280;SDS011;66339;47.262;17.144;2023-03-14T15:41:03;4.68;;;1.23;;
77280;SDS011;66339;47.262;17.144;2023-03-14T15:43:30;5.20;;;0.95;;
77280;SDS011;66339;47.262;17.144;2023-03-14T15:46:00;7.45;;;1.25;;
77280;SDS011;66339;47.262;17.144;2023-03-14T15:48:27;9.68;;;1.48;;
77280;SDS011;66339;47.262;17.144;2023-03-14T15:50:58;5.32;;;1.10;;
77280;SDS011;66339;47.262;17.144;2023-03-14T15:53:27;3.85;;;1.48;;
77280;SDS011;66339;47.262;17.144;2023-03-14T15:55:55;5.12;;;2.33;;
77280;SDS011;66339;47.262;17.144;2023-03-14T15:58:26;7.55;;;1.30;;
77280;SDS011;66339;47.262;17.144;2023-03-14T16:00:54;4.68;;;1.40;;
77280;SDS011;66339;47.262;17.144;2023-03-14T16:03:21;3.70;;;1.45;;
77280;SDS011;66339;47.262;17.144;2023-03-14T16:05:50;5.18;;;1.23;;
77280;SDS011;66339;47.262;17.144;2023-03-14T16:08:18;3.78;;;1.60;;
77280;SDS011;66339;47.262;17.144;2023-03-14T16:10:50;5.50;;;1.67;;
77280;SDS011;66339;47.262;17.144;2023-03-14T16:13:23;6.30;;;1.50;;
77280;SDS011;66339;47.262;17.144;2023-03-14T16:18:29;4.20;;;1.20;;
77280;SDS011;66339;47.262;17.144;2023-03-14T16:21:10;4.90;;;1.50;;
77280;SDS011;66339;47.262;17.144;2023-03-14T16:23:47;5.70;;;1.40;;
77280;SDS011;66339;47.262;17.144;2023-03-14T16:26:16;6.87;;;1.70;;
77280;SDS011;66339;47.262;17.144;2023-03-14T16:28:45;3.70;;;1.52;;
77280;SDS011;66339;47.262;17.144;2023-03-14T16:31:19;2.15;;;1.20;;
77280;SDS011;66339;47.262;17.144;2023-03-14T16:33:47;3.67;;;1.40;;
77280;SDS011;66339;47.262;17.144;2023-03-14T16:36:21;4.72;;;1.55;;
77280;SDS011;66339;47.262;17.144;2023-03-14T16:38:56;3.65;;;1.20;;
77280;SDS011;66339;47.262;17.144;2023-03-14T16:41:24;5.43;;;1.30;;